Huelva, Spain
Current Conditions -  °F | °C
As of 8:00 AM on Thursday 18 Dec 2014 (Local Time) from LERT Reporting Station
Few Clouds Few Clouds  
Wind Chill: 41°   Ceiling: Unl
Heat Index: 45°   Visibility: 4mi
Dew Point: 45°   Wind: 6mph
Humidity: 100%   Direction: 10°N
Pressure: 30.33"   Gusts: NA
Location:  37.26°N, 6.95°W
Report Text: LERT 180700Z 01005KT 340V050 6000 FEW001 07/07 Q1027 NOSIG
Loading
Personal Weather Stations






























Interactive Weather Map New forecast layout! Learn more

10-Day Weather Forecast

Advertisements
Track Severe Weather on mobile